sensor_id;sensor_type;location;lat;lon;timestamp;temperature;humidity
69628;DHT22;56850;51.984;5.088;2022-09-06T00:01:37;23.70;60.50
69628;DHT22;56850;51.984;5.088;2022-09-06T00:04:04;23.70;60.60
69628;DHT22;56850;51.984;5.088;2022-09-06T00:06:31;23.70;60.80
69628;DHT22;56850;51.984;5.088;2022-09-06T00:08:58;23.70;60.90
69628;DHT22;56850;51.984;5.088;2022-09-06T00:11:25;23.70;60.90
69628;DHT22;56850;51.984;5.088;2022-09-06T00:13:52;23.70;60.90
69628;DHT22;56850;51.984;5.088;2022-09-06T00:16:21;23.70;60.60
69628;DHT22;56850;51.984;5.088;2022-09-06T00:18:56;23.60;60.60
69628;DHT22;56850;51.984;5.088;2022-09-06T00:21:25;23.60;60.30
69628;DHT22;56850;51.984;5.088;2022-09-06T00:23:52;23.60;60.40
69628;DHT22;56850;51.984;5.088;2022-09-06T00:26:21;23.50;60.20
69628;DHT22;56850;51.984;5.088;2022-09-06T00:28:48;23.50;60.60
69628;DHT22;56850;51.984;5.088;2022-09-06T00:31:18;23.50;60.70
69628;DHT22;56850;51.984;5.088;2022-09-06T00:33:46;23.50;60.90
69628;DHT22;56850;51.984;5.088;2022-09-06T00:36:13;23.40;60.70
69628;DHT22;56850;51.984;5.088;2022-09-06T00:38:40;23.40;60.80
69628;DHT22;56850;51.984;5.088;2022-09-06T00:41:09;23.40;61.00
69628;DHT22;56850;51.984;5.088;2022-09-06T00:43:36;23.40;61.40
69628;DHT22;56850;51.984;5.088;2022-09-06T00:46:05;23.40;61.40
69628;DHT22;56850;51.984;5.088;2022-09-06T00:48:34;23.30;61.60
69628;DHT22;56850;51.984;5.088;2022-09-06T00:51:05;23.30;61.50
69628;DHT22;56850;51.984;5.088;2022-09-06T00:53:33;23.40;61.50
69628;DHT22;56850;51.984;5.088;2022-09-06T00:56:00;23.40;61.50
69628;DHT22;56850;51.984;5.088;2022-09-06T00:58:27;23.40;61.40
69628;DHT22;56850;51.984;5.088;2022-09-06T01:00:54;23.30;61.10
69628;DHT22;56850;51.984;5.088;2022-09-06T01:03:23;23.30;61.20
69628;DHT22;56850;51.984;5.088;2022-09-06T01:12:20;23.30;61.80
69628;DHT22;56850;51.984;5.088;2022-09-06T01:15:13;23.30;61.80
69628;DHT22;56850;51.984;5.088;2022-09-06T01:29:31;23.20;62.40
69628;DHT22;56850;51.984;5.088;2022-09-06T01:32:22;23.20;62.60
69628;DHT22;56850;51.984;5.088;2022-09-06T01:37:39;23.10;63.70
69628;DHT22;56850;51.984;5.088;2022-09-06T01:40:07;23.10;63.80
69628;DHT22;56850;51.984;5.088;2022-09-06T01:42:34;23.10;63.90
69628;DHT22;56850;51.984;5.088;2022-09-06T01:45:11;23.10;63.70
69628;DHT22;56850;51.984;5.088;2022-09-06T01:50:18;23.10;63.70
69628;DHT22;56850;51.984;5.088;2022-09-06T01:53:03;23.00;63.80
69628;DHT22;56850;51.984;5.088;2022-09-06T02:01:04;22.80;63.70
69628;DHT22;56850;51.984;5.088;2022-09-06T02:06:10;22.70;63.40
69628;DHT22;56850;51.984;5.088;2022-09-06T02:08:42;22.60;63.50
69628;DHT22;56850;51.984;5.088;2022-09-06T02:11:13;22.60;63.60
69628;DHT22;56850;51.984;5.088;2022-09-06T02:13:48;22.50;63.80
69628;DHT22;56850;51.984;5.088;2022-09-06T02:16:19;22.50;64.10
69628;DHT22;56850;51.984;5.088;2022-09-06T02:18:55;22.50;64.20
69628;DHT22;56850;51.984;5.088;2022-09-06T02:21:34;22.40;64.20
69628;DHT22;56850;51.984;5.088;2022-09-06T02:24:04;22.40;64.50
69628;DHT22;56850;51.984;5.088;2022-09-06T02:26:40;22.40;64.60
69628;DHT22;56850;51.984;5.088;2022-09-06T02:29:08;22.40;64.80
69628;DHT22;56850;51.984;5.088;2022-09-06T02:31:38;22.40;64.80
69628;DHT22;56850;51.984;5.088;2022-09-06T02:34:10;22.40;64.90
69628;DHT22;56850;51.984;5.088;2022-09-06T02:36:39;22.40;65.00
69628;DHT22;56850;51.984;5.088;2022-09-06T02:39:06;22.40;65.20
69628;DHT22;56850;51.984;5.088;2022-09-06T02:41:33;22.40;65.20
69628;DHT22;56850;51.984;5.088;2022-09-06T02:44:00;22.30;65.20
69628;DHT22;56850;51.984;5.088;2022-09-06T02:46:27;22.30;65.30
69628;DHT22;56850;51.984;5.088;2022-09-06T02:48:54;22.30;65.40
69628;DHT22;56850;51.984;5.088;2022-09-06T02:51:21;22.30;65.40
69628;DHT22;56850;51.984;5.088;2022-09-06T02:53:48;22.30;65.50
69628;DHT22;56850;51.984;5.088;2022-09-06T02:56:15;22.30;65.50
69628;DHT22;56850;51.984;5.088;2022-09-06T02:58:42;22.40;65.50
69628;DHT22;56850;51.984;5.088;2022-09-06T03:01:09;22.40;65.50
69628;DHT22;56850;51.984;5.088;2022-09-06T03:03:36;22.30;65.50
69628;DHT22;56850;51.984;5.088;2022-09-06T03:06:03;22.30;65.40
69628;DHT22;56850;51.984;5.088;2022-09-06T03:08:30;22.30;65.40
69628;DHT22;56850;51.984;5.088;2022-09-06T03:10:59;22.30;65.50
69628;DHT22;56850;51.984;5.088;2022-09-06T03:13:27;22.30;65.60
69628;DHT22;56850;51.984;5.088;2022-09-06T03:15:56;22.30;65.50
69628;DHT22;56850;51.984;5.088;2022-09-06T03:18:25;22.20;65.50
69628;DHT22;56850;51.984;5.088;2022-09-06T03:20:53;22.20;65.70
69628;DHT22;56850;51.984;5.088;2022-09-06T03:23:23;22.10;65.80
69628;DHT22;56850;51.984;5.088;2022-09-06T03:25:50;22.10;65.80
69628;DHT22;56850;51.984;5.088;2022-09-06T03:28:18;22.10;65.70
69628;DHT22;56850;51.984;5.088;2022-09-06T03:30:46;22.00;65.70
69628;DHT22;56850;51.984;5.088;2022-09-06T03:33:14;21.90;65.70
69628;DHT22;56850;51.984;5.088;2022-09-06T03:35:50;21.90;66.00
69628;DHT22;56850;51.984;5.088;2022-09-06T03:38:18;21.80;66.10
69628;DHT22;56850;51.984;5.088;2022-09-06T03:40:48;21.80;66.20
69628;DHT22;56850;51.984;5.088;2022-09-06T03:43:16;21.80;66.20
69628;DHT22;56850;51.984;5.088;2022-09-06T03:45:55;21.80;66.30
69628;DHT22;56850;51.984;5.088;2022-09-06T03:48:26;21.80;66.40
69628;DHT22;56850;51.984;5.088;2022-09-06T03:50:54;21.80;66.50
69628;DHT22;56850;51.984;5.088;2022-09-06T03:53:23;21.80;66.40
69628;DHT22;56850;51.984;5.088;2022-09-06T03:55:52;21.80;66.50
69628;DHT22;56850;51.984;5.088;2022-09-06T03:58:21;21.80;66.40
69628;DHT22;56850;51.984;5.088;2022-09-06T04:00:50;21.70;66.40
69628;DHT22;56850;51.984;5.088;2022-09-06T04:03:24;21.70;66.60
69628;DHT22;56850;51.984;5.088;2022-09-06T04:05:51;21.70;66.60
69628;DHT22;56850;51.984;5.088;2022-09-06T04:08:18;21.70;66.80
69628;DHT22;56850;51.984;5.088;2022-09-06T04:10:49;21.70;66.80
69628;DHT22;56850;51.984;5.088;2022-09-06T04:13:16;21.70;66.80
69628;DHT22;56850;51.984;5.088;2022-09-06T04:15:46;21.80;66.80
69628;DHT22;56850;51.984;5.088;2022-09-06T04:18:14;21.70;66.80
69628;DHT22;56850;51.984;5.088;2022-09-06T04:20:41;21.70;66.90
69628;DHT22;56850;51.984;5.088;2022-09-06T04:23:08;21.70;66.90
69628;DHT22;56850;51.984;5.088;2022-09-06T04:25:35;21.70;67.00
69628;DHT22;56850;51.984;5.088;2022-09-06T04:28:02;21.80;67.00
69628;DHT22;56850;51.984;5.088;2022-09-06T04:30:29;21.80;66.80
69628;DHT22;56850;51.984;5.088;2022-09-06T04:32:56;21.70;66.90
69628;DHT22;56850;51.984;5.088;2022-09-06T04:35:24;21.80;66.90
69628;DHT22;56850;51.984;5.088;2022-09-06T04:37:51;21.70;66.80
69628;DHT22;56850;51.984;5.088;2022-09-06T04:40:18;21.70;66.90
69628;DHT22;56850;51.984;5.088;2022-09-06T04:42:44;21.70;67.10
69628;DHT22;56850;51.984;5.088;2022-09-06T04:45:11;21.70;66.90
69628;DHT22;56850;51.984;5.088;2022-09-06T04:47:38;21.60;67.00
69628;DHT22;56850;51.984;5.088;2022-09-06T04:50:05;21.60;67.10
69628;DHT22;56850;51.984;5.088;2022-09-06T04:52:32;21.60;67.20
69628;DHT22;56850;51.984;5.088;2022-09-06T04:54:59;21.70;67.20
69628;DHT22;56850;51.984;5.088;2022-09-06T04:57:26;21.70;67.20
69628;DHT22;56850;51.984;5.088;2022-09-06T04:59:53;21.60;67.00
69628;DHT22;56850;51.984;5.088;2022-09-06T05:02:20;21.50;67.00
69628;DHT22;56850;51.984;5.088;2022-09-06T05:04:47;21.50;67.30
69628;DHT22;56850;51.984;5.088;2022-09-06T05:07:13;21.40;67.50
69628;DHT22;56850;51.984;5.088;2022-09-06T05:09:40;21.40;67.60
69628;DHT22;56850;51.984;5.088;2022-09-06T05:12:07;21.40;67.60
69628;DHT22;56850;51.984;5.088;2022-09-06T05:14:34;21.30;67.80
69628;DHT22;56850;51.984;5.088;2022-09-06T05:17:01;21.30;67.80
69628;DHT22;56850;51.984;5.088;2022-09-06T05:19:28;21.30;67.90
69628;DHT22;56850;51.984;5.088;2022-09-06T05:21:55;21.30;68.10
69628;DHT22;56850;51.984;5.088;2022-09-06T05:24:22;21.30;68.00
69628;DHT22;56850;51.984;5.088;2022-09-06T05:26:49;21.20;68.10
69628;DHT22;56850;51.984;5.088;2022-09-06T05:29:16;21.30;68.10
69628;DHT22;56850;51.984;5.088;2022-09-06T05:31:43;21.30;68.10
69628;DHT22;56850;51.984;5.088;2022-09-06T05:34:10;21.30;68.00
69628;DHT22;56850;51.984;5.088;2022-09-06T05:36:39;21.20;68.00
69628;DHT22;56850;51.984;5.088;2022-09-06T05:39:07;21.20;68.10
69628;DHT22;56850;51.984;5.088;2022-09-06T05:41:34;21.20;68.20
69628;DHT22;56850;51.984;5.088;2022-09-06T05:44:01;21.30;68.20
69628;DHT22;56850;51.984;5.088;2022-09-06T05:46:29;21.30;68.20
69628;DHT22;56850;51.984;5.088;2022-09-06T05:48:57;21.30;68.20
69628;DHT22;56850;51.984;5.088;2022-09-06T05:51:26;21.40;68.30
69628;DHT22;56850;51.984;5.088;2022-09-06T05:53:53;21.40;68.20
69628;DHT22;56850;51.984;5.088;2022-09-06T05:56:20;21.40;68.20
69628;DHT22;56850;51.984;5.088;2022-09-06T05:58:48;21.50;68.20
69628;DHT22;56850;51.984;5.088;2022-09-06T06:01:20;21.50;68.20
69628;DHT22;56850;51.984;5.088;2022-09-06T06:03:52;21.50;68.20
69628;DHT22;56850;51.984;5.088;2022-09-06T06:06:20;21.50;68.20
69628;DHT22;56850;51.984;5.088;2022-09-06T06:08:47;21.50;68.20
69628;DHT22;56850;51.984;5.088;2022-09-06T06:11:15;21.60;68.20
69628;DHT22;56850;51.984;5.088;2022-09-06T06:13:43;21.60;68.20
69628;DHT22;56850;51.984;5.088;2022-09-06T06:16:11;21.60;68.20
69628;DHT22;56850;51.984;5.088;2022-09-06T06:18:39;21.60;68.20
69628;DHT22;56850;51.984;5.088;2022-09-06T06:21:14;21.70;68.10
69628;DHT22;56850;51.984;5.088;2022-09-06T06:23:43;21.70;68.00
69628;DHT22;56850;51.984;5.088;2022-09-06T06:26:12;21.70;67.90
69628;DHT22;56850;51.984;5.088;2022-09-06T06:28:39;21.70;67.80
69628;DHT22;56850;51.984;5.088;2022-09-06T06:31:08;21.70;67.70
69628;DHT22;56850;51.984;5.088;2022-09-06T06:33:35;21.70;67.70
69628;DHT22;56850;51.984;5.088;2022-09-06T06:36:05;21.70;67.80
69628;DHT22;56850;51.984;5.088;2022-09-06T06:38:37;21.70;67.80
69628;DHT22;56850;51.984;5.088;2022-09-06T06:41:05;21.70;67.70
69628;DHT22;56850;51.984;5.088;2022-09-06T06:43:33;21.70;67.80
69628;DHT22;56850;51.984;5.088;2022-09-06T06:46:07;21.70;67.70
69628;DHT22;56850;51.984;5.088;2022-09-06T06:48:36;21.70;67.90
69628;DHT22;56850;51.984;5.088;2022-09-06T06:51:03;21.80;68.00
69628;DHT22;56850;51.984;5.088;2022-09-06T06:53:30;21.80;67.90
69628;DHT22;56850;51.984;5.088;2022-09-06T06:55:58;21.80;67.90
69628;DHT22;56850;51.984;5.088;2022-09-06T06:58:25;21.80;67.80
69628;DHT22;56850;51.984;5.088;2022-09-06T07:00:52;21.80;67.80
69628;DHT22;56850;51.984;5.088;2022-09-06T07:03:19;21.80;67.80
69628;DHT22;56850;51.984;5.088;2022-09-06T07:05:47;21.80;67.80
69628;DHT22;56850;51.984;5.088;2022-09-06T07:08:34;21.90;67.70
69628;DHT22;56850;51.984;5.088;2022-09-06T07:11:04;21.90;67.70
69628;DHT22;56850;51.984;5.088;2022-09-06T07:13:32;21.90;67.80
69628;DHT22;56850;51.984;5.088;2022-09-06T07:16:26;22.00;67.80
69628;DHT22;56850;51.984;5.088;2022-09-06T07:18:54;22.00;67.90
69628;DHT22;56850;51.984;5.088;2022-09-06T07:21:23;22.00;67.70
69628;DHT22;56850;51.984;5.088;2022-09-06T07:24:08;22.10;67.80
69628;DHT22;56850;51.984;5.088;2022-09-06T07:26:37;22.20;67.80
69628;DHT22;56850;51.984;5.088;2022-09-06T07:29:06;22.20;67.80
69628;DHT22;56850;51.984;5.088;2022-09-06T07:31:36;22.30;67.70
69628;DHT22;56850;51.984;5.088;2022-09-06T07:34:23;22.30;67.40
69628;DHT22;56850;51.984;5.088;2022-09-06T07:36:52;22.40;67.20
69628;DHT22;56850;51.984;5.088;2022-09-06T07:39:19;22.50;67.00
69628;DHT22;56850;51.984;5.088;2022-09-06T07:41:46;22.50;66.80
69628;DHT22;56850;51.984;5.088;2022-09-06T07:44:13;22.60;66.60
69628;DHT22;56850;51.984;5.088;2022-09-06T07:46:41;22.70;66.40
69628;DHT22;56850;51.984;5.088;2022-09-06T07:49:08;22.70;66.40
69628;DHT22;56850;51.984;5.088;2022-09-06T07:51:35;22.80;66.20
69628;DHT22;56850;51.984;5.088;2022-09-06T07:54:02;22.90;66.10
69628;DHT22;56850;51.984;5.088;2022-09-06T07:56:49;23.00;66.00
69628;DHT22;56850;51.984;5.088;2022-09-06T07:59:15;23.10;65.90
69628;DHT22;56850;51.984;5.088;2022-09-06T08:01:42;23.20;65.80
69628;DHT22;56850;51.984;5.088;2022-09-06T08:04:11;23.20;65.50
69628;DHT22;56850;51.984;5.088;2022-09-06T08:06:42;23.30;65.20
69628;DHT22;56850;51.984;5.088;2022-09-06T08:09:29;23.30;64.90
69628;DHT22;56850;51.984;5.088;2022-09-06T08:11:56;23.40;64.90
69628;DHT22;56850;51.984;5.088;2022-09-06T08:14:23;23.50;64.70
69628;DHT22;56850;51.984;5.088;2022-09-06T08:16:50;23.60;64.70
69628;DHT22;56850;51.984;5.088;2022-09-06T08:19:17;23.70;64.30
69628;DHT22;56850;51.984;5.088;2022-09-06T08:21:44;23.80;64.00
69628;DHT22;56850;51.984;5.088;2022-09-06T08:24:10;23.90;63.70
69628;DHT22;56850;51.984;5.088;2022-09-06T08:26:38;24.00;63.40
69628;DHT22;56850;51.984;5.088;2022-09-06T08:29:11;24.10;63.10
69628;DHT22;56850;51.984;5.088;2022-09-06T08:31:40;24.20;62.90
69628;DHT22;56850;51.984;5.088;2022-09-06T08:34:08;24.30;62.60
69628;DHT22;56850;51.984;5.088;2022-09-06T08:36:39;24.50;62.30
69628;DHT22;56850;51.984;5.088;2022-09-06T08:39:08;24.60;61.70
69628;DHT22;56850;51.984;5.088;2022-09-06T08:41:53;24.60;61.50
69628;DHT22;56850;51.984;5.088;2022-09-06T08:47:22;24.70;61.20
69628;DHT22;56850;51.984;5.088;2022-09-06T08:50:00;24.80;60.40
69628;DHT22;56850;51.984;5.088;2022-09-06T08:58:28;25.20;59.60
69628;DHT22;56850;51.984;5.088;2022-09-06T09:01:06;25.30;59.50
69628;DHT22;56850;51.984;5.088;2022-09-06T09:03:38;25.40;59.50
69628;DHT22;56850;51.984;5.088;2022-09-06T09:06:06;25.60;59.00
69628;DHT22;56850;51.984;5.088;2022-09-06T09:08:57;25.70;58.80
69628;DHT22;56850;51.984;5.088;2022-09-06T09:11:28;25.80;58.70
69628;DHT22;56850;51.984;5.088;2022-09-06T09:14:16;26.00;57.90
69628;DHT22;56850;51.984;5.088;2022-09-06T09:16:49;26.10;57.40
69628;DHT22;56850;51.984;5.088;2022-09-06T09:19:16;26.30;56.90
69628;DHT22;56850;51.984;5.088;2022-09-06T09:21:43;26.30;56.60
69628;DHT22;56850;51.984;5.088;2022-09-06T09:24:12;26.40;56.60
69628;DHT22;56850;51.984;5.088;2022-09-06T09:26:53;26.60;56.50
69628;DHT22;56850;51.984;5.088;2022-09-06T09:29:22;26.70;56.00
69628;DHT22;56850;51.984;5.088;2022-09-06T09:31:55;26.90;55.60
69628;DHT22;56850;51.984;5.088;2022-09-06T09:34:35;27.00;55.40
69628;DHT22;56850;51.984;5.088;2022-09-06T09:37:29;27.10;54.90
69628;DHT22;56850;51.984;5.088;2022-09-06T09:42:53;27.30;54.40
69628;DHT22;56850;51.984;5.088;2022-09-06T09:45:27;27.40;54.40
69628;DHT22;56850;51.984;5.088;2022-09-06T09:47:54;27.50;54.10
69628;DHT22;56850;51.984;5.088;2022-09-06T09:50:28;27.60;53.90
69628;DHT22;56850;51.984;5.088;2022-09-06T09:52:55;27.70;53.40
69628;DHT22;56850;51.984;5.088;2022-09-06T09:55:24;27.60;53.10
69628;DHT22;56850;51.984;5.088;2022-09-06T09:57:52;27.40;53.40
69628;DHT22;56850;51.984;5.088;2022-09-06T10:00:34;27.50;53.70
69628;DHT22;56850;51.984;5.088;2022-09-06T10:05:38;27.70;53.40
69628;DHT22;56850;51.984;5.088;2022-09-06T10:08:09;27.80;53.60
69628;DHT22;56850;51.984;5.088;2022-09-06T10:10:41;27.90;53.10
69628;DHT22;56850;51.984;5.088;2022-09-06T10:13:21;28.00;52.70
69628;DHT22;56850;51.984;5.088;2022-09-06T10:15:50;28.20;52.30
69628;DHT22;56850;51.984;5.088;2022-09-06T10:18:39;28.20;52.20
69628;DHT22;56850;51.984;5.088;2022-09-06T10:21:14;28.30;52.10
69628;DHT22;56850;51.984;5.088;2022-09-06T10:26:51;28.40;51.60
69628;DHT22;56850;51.984;5.088;2022-09-06T10:29:43;28.60;51.50
69628;DHT22;56850;51.984;5.088;2022-09-06T10:32:36;28.70;50.90
69628;DHT22;56850;51.984;5.088;2022-09-06T10:42:59;29.10;50.50
69628;DHT22;56850;51.984;5.088;2022-09-06T10:50:57;29.30;50.40
69628;DHT22;56850;51.984;5.088;2022-09-06T10:56:42;29.40;50.10
69628;DHT22;56850;51.984;5.088;2022-09-06T10:59:40;29.40;49.50
69628;DHT22;56850;51.984;5.088;2022-09-06T11:02:35;29.40;48.90
69628;DHT22;56850;51.984;5.088;2022-09-06T11:05:10;29.40;49.10
69628;DHT22;56850;51.984;5.088;2022-09-06T11:08:02;29.50;49.00
69628;DHT22;56850;51.984;5.088;2022-09-06T11:10:50;29.60;48.60
69628;DHT22;56850;51.984;5.088;2022-09-06T11:13:26;29.60;48.50
69628;DHT22;56850;51.984;5.088;2022-09-06T11:15:59;29.60;49.10
69628;DHT22;56850;51.984;5.088;2022-09-06T11:24:12;29.80;48.50
69628;DHT22;56850;51.984;5.088;2022-09-06T11:29:19;30.10;48.30
69628;DHT22;56850;51.984;5.088;2022-09-06T11:31:56;30.10;48.10
69628;DHT22;56850;51.984;5.088;2022-09-06T11:34:52;30.00;48.20
69628;DHT22;56850;51.984;5.088;2022-09-06T11:37:29;29.90;48.20
69628;DHT22;56850;51.984;5.088;2022-09-06T11:40:19;29.90;48.50
69628;DHT22;56850;51.984;5.088;2022-09-06T11:45:20;30.10;48.30
69628;DHT22;56850;51.984;5.088;2022-09-06T11:47:51;30.20;48.40
69628;DHT22;56850;51.984;5.088;2022-09-06T11:53:14;30.10;48.60
69628;DHT22;56850;51.984;5.088;2022-09-06T11:55:47;30.10;48.60
69628;DHT22;56850;51.984;5.088;2022-09-06T12:01:33;30.10;48.80
69628;DHT22;56850;51.984;5.088;2022-09-06T12:06:42;30.50;48.40
69628;DHT22;56850;51.984;5.088;2022-09-06T12:09:39;30.80;48.00
69628;DHT22;56850;51.984;5.088;2022-09-06T12:12:09;31.10;47.10
69628;DHT22;56850;51.984;5.088;2022-09-06T12:14:43;31.10;46.90
69628;DHT22;56850;51.984;5.088;2022-09-06T12:19:46;31.20;46.20
69628;DHT22;56850;51.984;5.088;2022-09-06T12:25:02;31.40;45.90
69628;DHT22;56850;51.984;5.088;2022-09-06T12:27:52;31.50;45.20
69628;DHT22;56850;51.984;5.088;2022-09-06T12:33:06;31.70;44.90
69628;DHT22;56850;51.984;5.088;2022-09-06T12:35:34;31.80;44.70
69628;DHT22;56850;51.984;5.088;2022-09-06T12:38:23;31.90;44.50
69628;DHT22;56850;51.984;5.088;2022-09-06T12:40:51;31.90;44.60
69628;DHT22;56850;51.984;5.088;2022-09-06T12:43:24;32.10;44.40
69628;DHT22;56850;51.984;5.088;2022-09-06T12:45:51;32.20;44.30
69628;DHT22;56850;51.984;5.088;2022-09-06T12:48:32;32.20;44.00
69628;DHT22;56850;51.984;5.088;2022-09-06T12:51:06;32.30;43.20
69628;DHT22;56850;51.984;5.088;2022-09-06T12:53:34;32.40;43.00
69628;DHT22;56850;51.984;5.088;2022-09-06T12:56:09;32.40;42.50
69628;DHT22;56850;51.984;5.088;2022-09-06T12:58:38;32.50;42.20
69628;DHT22;56850;51.984;5.088;2022-09-06T13:01:32;32.50;42.00
69628;DHT22;56850;51.984;5.088;2022-09-06T13:06:39;32.60;41.30
69628;DHT22;56850;51.984;5.088;2022-09-06T13:09:11;32.60;41.00
69628;DHT22;56850;51.984;5.088;2022-09-06T13:11:44;32.60;41.10
69628;DHT22;56850;51.984;5.088;2022-09-06T13:14:23;32.70;41.00
69628;DHT22;56850;51.984;5.088;2022-09-06T13:16:51;32.80;41.40
69628;DHT22;56850;51.984;5.088;2022-09-06T13:19:37;32.90;41.10
69628;DHT22;56850;51.984;5.088;2022-09-06T13:22:06;33.00;41.10
69628;DHT22;56850;51.984;5.088;2022-09-06T13:27:21;33.20;40.40
69628;DHT22;56850;51.984;5.088;2022-09-06T13:33:01;33.30;39.40
69628;DHT22;56850;51.984;5.088;2022-09-06T13:35:30;33.30;39.60
69628;DHT22;56850;51.984;5.088;2022-09-06T13:41:04;33.50;39.40
69628;DHT22;56850;51.984;5.088;2022-09-06T13:43:45;33.50;39.40
69628;DHT22;56850;51.984;5.088;2022-09-06T13:46:16;33.60;39.20
69628;DHT22;56850;51.984;5.088;2022-09-06T13:48:43;33.70;39.30
69628;DHT22;56850;51.984;5.088;2022-09-06T13:51:10;33.70;39.30
69628;DHT22;56850;51.984;5.088;2022-09-06T13:53:37;33.60;38.60
69628;DHT22;56850;51.984;5.088;2022-09-06T13:56:04;33.40;38.50
69628;DHT22;56850;51.984;5.088;2022-09-06T13:58:34;33.30;38.20
69628;DHT22;56850;51.984;5.088;2022-09-06T14:01:02;33.20;38.30
69628;DHT22;56850;51.984;5.088;2022-09-06T14:03:31;33.30;38.30
69628;DHT22;56850;51.984;5.088;2022-09-06T14:05:59;33.20;38.00
69628;DHT22;56850;51.984;5.088;2022-09-06T14:08:27;33.20;38.10
69628;DHT22;56850;51.984;5.088;2022-09-06T14:11:14;33.10;38.20
69628;DHT22;56850;51.984;5.088;2022-09-06T14:13:41;32.90;38.70
69628;DHT22;56850;51.984;5.088;2022-09-06T14:16:08;32.70;38.80
69628;DHT22;56850;51.984;5.088;2022-09-06T14:18:36;32.50;39.40
69628;DHT22;56850;51.984;5.088;2022-09-06T14:21:03;32.60;39.30
69628;DHT22;56850;51.984;5.088;2022-09-06T14:23:31;32.60;38.80
69628;DHT22;56850;51.984;5.088;2022-09-06T14:25:59;32.50;39.00
69628;DHT22;56850;51.984;5.088;2022-09-06T14:28:29;32.40;39.50
69628;DHT22;56850;51.984;5.088;2022-09-06T14:30:56;32.20;39.90
69628;DHT22;56850;51.984;5.088;2022-09-06T14:33:23;32.40;39.90
69628;DHT22;56850;51.984;5.088;2022-09-06T14:35:51;32.60;39.80
69628;DHT22;56850;51.984;5.088;2022-09-06T14:38:17;32.70;39.20
69628;DHT22;56850;51.984;5.088;2022-09-06T14:40:45;32.80;39.30
69628;DHT22;56850;51.984;5.088;2022-09-06T14:43:13;32.90;39.00
69628;DHT22;56850;51.984;5.088;2022-09-06T14:45:41;32.90;38.90
69628;DHT22;56850;51.984;5.088;2022-09-06T14:48:08;33.00;38.30
69628;DHT22;56850;51.984;5.088;2022-09-06T14:50:35;33.00;38.00
69628;DHT22;56850;51.984;5.088;2022-09-06T14:53:03;33.00;38.20
69628;DHT22;56850;51.984;5.088;2022-09-06T14:55:44;33.00;38.00
69628;DHT22;56850;51.984;5.088;2022-09-06T14:58:11;33.10;38.00
69628;DHT22;56850;51.984;5.088;2022-09-06T15:00:41;33.10;37.80
69628;DHT22;56850;51.984;5.088;2022-09-06T15:03:11;33.00;37.50
69628;DHT22;56850;51.984;5.088;2022-09-06T15:05:38;32.80;37.70
69628;DHT22;56850;51.984;5.088;2022-09-06T15:08:05;32.70;37.40
69628;DHT22;56850;51.984;5.088;2022-09-06T15:10:32;32.70;36.70
69628;DHT22;56850;51.984;5.088;2022-09-06T15:12:59;32.70;36.60
69628;DHT22;56850;51.984;5.088;2022-09-06T15:15:26;32.50;36.50
69628;DHT22;56850;51.984;5.088;2022-09-06T15:17:54;32.30;36.70
69628;DHT22;56850;51.984;5.088;2022-09-06T15:20:21;32.20;36.60
69628;DHT22;56850;51.984;5.088;2022-09-06T15:22:48;32.10;37.00
69628;DHT22;56850;51.984;5.088;2022-09-06T15:25:35;32.10;37.10
69628;DHT22;56850;51.984;5.088;2022-09-06T15:28:02;32.20;37.00
69628;DHT22;56850;51.984;5.088;2022-09-06T15:30:33;32.40;37.10
69628;DHT22;56850;51.984;5.088;2022-09-06T15:33:01;32.50;36.90
69628;DHT22;56850;51.984;5.088;2022-09-06T15:35:28;32.60;36.70
69628;DHT22;56850;51.984;5.088;2022-09-06T15:37:55;32.70;36.40
69628;DHT22;56850;51.984;5.088;2022-09-06T15:40:21;32.70;36.10
69628;DHT22;56850;51.984;5.088;2022-09-06T15:42:50;32.50;36.30
69628;DHT22;56850;51.984;5.088;2022-09-06T15:45:17;32.50;36.40
69628;DHT22;56850;51.984;5.088;2022-09-06T15:47:44;32.40;36.60
69628;DHT22;56850;51.984;5.088;2022-09-06T15:50:11;32.50;36.70
69628;DHT22;56850;51.984;5.088;2022-09-06T15:52:38;32.50;36.80
69628;DHT22;56850;51.984;5.088;2022-09-06T15:55:06;32.50;36.80
69628;DHT22;56850;51.984;5.088;2022-09-06T15:57:51;32.30;36.80
69628;DHT22;56850;51.984;5.088;2022-09-06T16:00:21;32.10;37.10
69628;DHT22;56850;51.984;5.088;2022-09-06T16:02:49;32.00;37.20
69628;DHT22;56850;51.984;5.088;2022-09-06T16:05:23;31.80;37.50
69628;DHT22;56850;51.984;5.088;2022-09-06T16:08:10;31.60;37.80
69628;DHT22;56850;51.984;5.088;2022-09-06T16:10:37;31.50;38.00
69628;DHT22;56850;51.984;5.088;2022-09-06T16:13:04;31.40;38.10
69628;DHT22;56850;51.984;5.088;2022-09-06T16:15:31;31.30;38.30
69628;DHT22;56850;51.984;5.088;2022-09-06T16:17:59;31.20;38.50
69628;DHT22;56850;51.984;5.088;2022-09-06T16:20:31;31.10;38.60
69628;DHT22;56850;51.984;5.088;2022-09-06T16:22:59;31.10;38.70
69628;DHT22;56850;51.984;5.088;2022-09-06T16:25:26;31.00;38.80
69628;DHT22;56850;51.984;5.088;2022-09-06T16:27:54;30.90;38.90
69628;DHT22;56850;51.984;5.088;2022-09-06T16:30:20;30.90;39.00
69628;DHT22;56850;51.984;5.088;2022-09-06T16:32:48;30.80;38.90
69628;DHT22;56850;51.984;5.088;2022-09-06T16:35:16;30.80;38.80
69628;DHT22;56850;51.984;5.088;2022-09-06T16:37:43;30.70;38.80
69628;DHT22;56850;51.984;5.088;2022-09-06T16:40:10;30.60;39.00
69628;DHT22;56850;51.984;5.088;2022-09-06T16:42:37;30.50;39.10
69628;DHT22;56850;51.984;5.088;2022-09-06T16:45:04;30.50;39.20
69628;DHT22;56850;51.984;5.088;2022-09-06T16:47:31;30.50;39.30
69628;DHT22;56850;51.984;5.088;2022-09-06T16:49:58;30.40;39.20
69628;DHT22;56850;51.984;5.088;2022-09-06T16:52:25;30.40;39.20
69628;DHT22;56850;51.984;5.088;2022-09-06T16:54:52;30.30;39.20
69628;DHT22;56850;51.984;5.088;2022-09-06T16:57:20;30.30;39.30
69628;DHT22;56850;51.984;5.088;2022-09-06T16:59:50;30.20;39.50
69628;DHT22;56850;51.984;5.088;2022-09-06T17:02:17;30.20;39.70
69628;DHT22;56850;51.984;5.088;2022-09-06T17:04:48;30.20;39.80
69628;DHT22;56850;51.984;5.088;2022-09-06T17:07:16;30.20;39.80
69628;DHT22;56850;51.984;5.088;2022-09-06T17:09:44;30.20;40.20
69628;DHT22;56850;51.984;5.088;2022-09-06T17:12:13;30.10;40.30
69628;DHT22;56850;51.984;5.088;2022-09-06T17:14:40;30.10;40.30
69628;DHT22;56850;51.984;5.088;2022-09-06T17:17:08;30.00;40.50
69628;DHT22;56850;51.984;5.088;2022-09-06T17:19:37;30.00;40.60
69628;DHT22;56850;51.984;5.088;2022-09-06T17:22:10;30.00;40.80
69628;DHT22;56850;51.984;5.088;2022-09-06T17:24:39;29.90;40.70
69628;DHT22;56850;51.984;5.088;2022-09-06T17:27:08;29.90;40.80
69628;DHT22;56850;51.984;5.088;2022-09-06T17:29:35;29.90;40.70
69628;DHT22;56850;51.984;5.088;2022-09-06T17:32:02;29.90;40.70
69628;DHT22;56850;51.984;5.088;2022-09-06T17:34:31;29.80;40.90
69628;DHT22;56850;51.984;5.088;2022-09-06T17:36:58;29.70;41.10